CheckWX is a tool to help pilots better visualize weather data.  It is not intended as a substitute for an official pre-flight weather briefing.

10:37:42 UTC

KSTP METAR
St Paul Downtown Holman Field Airport
St Paul, Minnesota, USA
Current

45 mins ago

KSTP 170953Z AUTO 16007KT 10SM CLR 21/18 A3000 RMK AO2 SLP152 T02110178
Observed
Sep-17 @ 09:53 UTC
Wind
  • 160° at 7 KTS
Visibility
10 SM
Flight Rules
VFR
Cloud Levels
  • Clear skies
Temperature
21°C / 70°F
Dewpoint
18°C / 64°F
Humidity
83%
Altimeter
30" Hg
Pressure
1015.92 hPa
Previous

2 hours ago

KSTP 170853Z AUTO 14006KT 10SM CLR 21/18 A3000 RMK AO2 SLP151 T02110178 53002
Observed
Sep-17 @ 08:53 UTC
Wind
  • 140° at 6 KTS
Visibility
10 SM
Flight Rules
VFR
Cloud Levels
  • Clear skies
Temperature
21°C / 70°F
Dewpoint
18°C / 64°F
Humidity
83%
Altimeter
30" Hg
Pressure
1015.92 hPa
Previous

3 hours ago

KSTP 170753Z AUTO 16008KT 10SM CLR 22/18 A2999 RMK AO2 SLP148 T02170178
Observed
Sep-17 @ 07:53 UTC
Wind
  • 160° at 8 KTS
Visibility
10 SM
Flight Rules
VFR
Cloud Levels
  • Clear skies
Temperature
22°C / 72°F
Dewpoint
18°C / 64°F
Humidity
78%
Altimeter
29.99" Hg
Pressure
1015.62 hPa